Time;durP1;ratioP1;P1;durP2;ratioP2;P2;SDS_P1;SDS_P2;PMS_P1;PMS_P2;Temp;Humidity;BMP_temperature;BMP_pressure;BME280_temperature;BME280_humidity;BME280_pressure;Samples;Min_cycle;Max_cycle;Signal;HPM_P1;HPM_P2
2023/05/01 00:01:32;;;;;;;0.20;0.20;;;18.50;87.50;;;;;;4982277;28;20035;-77
2023/05/01 00:03:58;;;;;;;0.43;0.30;;;18.50;87.60;;;;;;4983364;28;20071;-77
2023/05/01 00:06:23;;;;;;;0.80;0.32;;;18.50;87.50;;;;;;4984358;28;20572;-77
2023/05/01 00:08:49;;;;;;;0.20;0.20;;;18.50;88.20;;;;;;4984251;28;20069;-77
2023/05/01 00:11:14;;;;;;;0.47;0.45;;;18.50;87.50;;;;;;4983139;28;20070;-77
2023/05/01 00:13:41;;;;;;;0.30;0.30;;;18.50;87.70;;;;;;4983424;28;20579;-77
2023/05/01 00:16:10;;;;;;;0.40;0.40;;;18.50;87.50;;;;;;4982791;28;20100;-77
2023/05/01 00:18:36;;;;;;;0.45;0.40;;;18.50;87.50;;;;;;4982998;28;20105;-77
2023/05/01 00:21:02;;;;;;;0.77;0.70;;;18.50;87.60;;;;;;4984710;28;20078;-77
2023/05/01 00:23:27;;;;;;;1.42;0.40;;;18.50;87.60;;;;;;4984208;28;20044;-75
2023/05/01 00:25:53;;;;;;;0.40;0.32;;;18.50;88.40;;;;;;4982683;28;20060;-77
2023/05/01 00:28:18;;;;;;;0.55;0.55;;;18.50;87.70;;;;;;4983777;28;20085;-77
2023/05/01 00:30:44;;;;;;;0.28;0.28;;;18.50;87.70;;;;;;4980589;28;20038;-77
2023/05/01 00:33:10;;;;;;;0.40;0.40;;;18.50;87.70;;;;;;4985351;28;20042;-77
2023/05/01 00:35:36;;;;;;;0.20;0.20;;;18.50;87.60;;;;;;4983761;28;20130;-77
2023/05/01 00:38:01;;;;;;;0.32;0.32;;;18.50;87.70;;;;;;4985738;28;20384;-77
2023/05/01 00:40:27;;;;;;;1.83;0.40;;;18.50;87.60;;;;;;4982266;28;20069;-77
2023/05/01 00:42:53;;;;;;;1.35;0.30;;;18.50;87.70;;;;;;4979945;28;20141;-77
2023/05/01 00:45:19;;;;;;;0.25;0.25;;;18.50;87.70;;;;;;4979664;28;20066;-76
2023/05/01 00:47:44;;;;;;;0.20;0.20;;;18.50;87.70;;;;;;4982470;28;20065;-77
2023/05/01 00:50:10;;;;;;;0.60;0.40;;;18.50;87.80;;;;;;4983644;28;20078;-77
2023/05/01 00:52:35;;;;;;;0.32;0.20;;;18.50;87.70;;;;;;4982134;28;20090;-77
2023/05/01 00:55:01;;;;;;;0.30;0.30;;;18.40;87.60;;;;;;4982791;28;20030;-76
2023/05/01 00:57:27;;;;;;;0.40;0.20;;;18.40;87.60;;;;;;5001285;28;20650;-76
2023/05/01 00:59:52;;;;;;;0.40;0.25;;;18.50;87.80;;;;;;4981581;28;20050;-77
2023/05/01 01:02:18;;;;;;;0.47;0.47;;;18.50;87.70;;;;;;4986509;28;20161;-76
2023/05/01 01:04:44;;;;;;;0.70;0.30;;;18.50;87.70;;;;;;4981940;28;20077;-77
2023/05/01 01:07:36;;;;;;;0.20;0.20;;;18.50;87.70;;;;;;5003215;28;20050;-77
2023/05/01 01:10:05;;;;;;;0.80;0.30;;;18.40;87.80;;;;;;4979342;28;20054;-77
2023/05/01 01:12:54;;;;;;;0.30;0.30;;;18.40;87.60;;;;;;4966497;28;20034;-77
2023/05/01 01:15:38;;;;;;;0.20;0.20;;;18.40;87.60;;;;;;5005255;28;20045;-77
2023/05/01 01:18:07;;;;;;;0.22;0.22;;;18.40;87.70;;;;;;4999607;28;20044;-77
2023/05/01 01:20:53;;;;;;;0.22;0.22;;;18.40;87.80;;;;;;5000598;28;20043;-77
2023/05/01 01:23:38;;;;;;;0.30;0.30;;;18.40;87.70;;;;;;4982832;28;20038;-76
2023/05/01 01:26:40;;;;;;;0.40;0.40;;;18.40;87.80;;;;;;4981905;28;20426;-77
2023/05/01 01:29:33;;;;;;;0.20;0.20;;;18.40;87.80;;;;;;4980720;28;20069;-77
2023/05/01 01:32:11;;;;;;;0.30;0.30;;;18.40;87.80;;;;;;4984211;28;20050;-77
2023/05/01 01:34:57;;;;;;;0.50;0.50;;;18.40;87.70;;;;;;4997379;28;20412;-77
2023/05/01 01:37:28;;;;;;;0.20;0.20;;;18.40;87.70;;;;;;4962354;28;20539;-77
2023/05/01 01:40:07;;;;;;;0.45;0.20;;;18.40;87.60;;;;;;4997136;28;20149;-76
2023/05/01 01:42:38;;;;;;;0.20;0.20;;;18.40;87.60;;;;;;4985155;28;20050;-76
2023/05/01 01:45:11;;;;;;;0.20;0.20;;;18.40;87.70;;;;;;4985563;28;20380;-77
2023/05/01 01:47:37;;;;;;;0.22;0.22;;;18.40;87.70;;;;;;5005216;28;20041;-77
2023/05/01 01:50:04;;;;;;;0.20;0.20;;;18.40;87.70;;;;;;4989451;28;20581;-76
2023/05/01 01:52:29;;;;;;;0.38;0.30;;;18.40;87.70;;;;;;4988380;28;20042;-77
2023/05/01 01:54:59;;;;;;;0.80;0.52;;;18.40;87.60;;;;;;4967842;28;20139;-77
2023/05/01 01:57:25;;;;;;;0.40;0.40;;;18.40;87.70;;;;;;4986159;28;20046;-77
2023/05/01 01:59:51;;;;;;;0.20;0.20;;;18.40;87.70;;;;;;4986336;28;20503;-77
2023/05/01 02:02:18;;;;;;;0.20;0.20;;;18.40;87.70;;;;;;4986602;28;20065;-77
2023/05/01 02:04:44;;;;;;;0.20;0.20;;;18.40;87.70;;;;;;5002757;28;20053;-76
2023/05/01 02:07:10;;;;;;;0.20;0.20;;;18.40;87.80;;;;;;4998277;28;20046;-77
2023/05/01 02:09:36;;;;;;;0.30;0.30;;;18.40;87.70;;;;;;4970613;28;20047;-77
2023/05/01 02:12:02;;;;;;;1.00;0.77;;;18.30;87.60;;;;;;4987464;28;20089;-77
2023/05/01 02:14:28;;;;;;;0.63;0.20;;;18.40;87.70;;;;;;5003325;28;20134;-77
2023/05/01 02:16:53;;;;;;;0.32;0.30;;;18.40;87.80;;;;;;5002685;28;20130;-77
2023/05/01 02:19:20;;;;;;;0.30;0.30;;;18.30;87.70;;;;;;4966572;28;20042;-77
2023/05/01 02:21:45;;;;;;;0.20;0.20;;;18.30;87.70;;;;;;4993249;28;20045;-77
2023/05/01 02:24:11;;;;;;;0.20;0.20;;;18.30;87.60;;;;;;4970506;28;20046;-77
2023/05/01 02:26:42;;;;;;;0.50;0.20;;;18.40;87.60;;;;;;4994022;28;20499;-77
2023/05/01 02:29:08;;;;;;;0.22;0.22;;;18.30;87.60;;;;;;4985394;28;20056;-77
2023/05/01 02:31:33;;;;;;;0.45;0.40;;;18.40;87.60;;;;;;5003347;28;20050;-77
2023/05/01 02:33:59;;;;;;;0.20;0.20;;;18.40;87.60;;;;;;4985042;28;20085;-77
2023/05/01 02:36:24;;;;;;;0.20;0.20;;;18.30;87.50;;;;;;5003861;28;20042;-77
2023/05/01 02:38:50;;;;;;;0.10;0.10;;;18.30;87.50;;;;;;4985670;28;20049;-77
2023/05/01 02:41:16;;;;;;;0.20;0.20;;;18.30;87.60;;;;;;4990383;28;20408;-76
2023/05/01 02:43:42;;;;;;;0.30;0.30;;;18.30;87.70;;;;;;4951898;28;20464;-77
2023/05/01 02:46:09;;;;;;;0.20;0.20;;;18.30;87.70;;;;;;4970289;28;20145;-77
2023/05/01 02:48:34;;;;;;;0.40;0.40;;;18.30;87.70;;;;;;4991880;28;20042;-76
2023/05/01 02:51:00;;;;;;;0.22;0.22;;;18.30;87.60;;;;;;4990172;28;20096;-77
2023/05/01 02:53:26;;;;;;;0.20;0.20;;;18.30;87.70;;;;;;5016452;28;20534;-77
2023/05/01 02:55:51;;;;;;;0.10;0.10;;;18.30;88.40;;;;;;4999369;28;20042;-77
2023/05/01 02:58:17;;;;;;;0.20;0.20;;;18.30;87.70;;;;;;4980490;28;20058;-77
2023/05/01 03:00:44;;;;;;;0.10;0.10;;;18.30;87.70;;;;;;4986691;28;20126;-77
2023/05/01 03:03:10;;;;;;;0.30;0.20;;;18.30;87.70;;;;;;4996989;28;20038;-77
2023/05/01 03:05:37;;;;;;;0.30;0.30;;;18.30;87.60;;;;;;4988027;28;20046;-77
2023/05/01 03:08:03;;;;;;;0.40;0.30;;;18.30;87.60;;;;;;4994874;28;21146;-77
2023/05/01 03:10:28;;;;;;;0.20;0.20;;;18.30;87.60;;;;;;5002380;28;20046;-77
2023/05/01 03:12:54;;;;;;;0.40;0.30;;;18.30;87.60;;;;;;5015013;28;20513;-77
2023/05/01 03:15:20;;;;;;;0.22;0.22;;;18.30;87.60;;;;;;5004801;28;20042;-77
2023/05/01 03:17:45;;;;;;;0.40;0.40;;;18.30;87.70;;;;;;5009686;28;20507;-77
2023/05/01 03:20:11;;;;;;;0.30;0.30;;;18.30;87.70;;;;;;5007634;28;20116;-77
2023/05/01 03:22:37;;;;;;;0.20;0.20;;;18.30;87.70;;;;;;5007763;28;20037;-76
2023/05/01 03:25:03;;;;;;;0.10;0.10;;;18.30;87.70;;;;;;5005035;28;20062;-77
2023/05/01 03:27:29;;;;;;;0.20;0.20;;;18.30;87.70;;;;;;5000552;28;20411;-77
2023/05/01 03:29:55;;;;;;;0.20;0.20;;;18.30;87.80;;;;;;4986468;28;20085;-77
2023/05/01 03:32:21;;;;;;;0.20;0.20;;;18.30;87.70;;;;;;4987133;28;20550;-77
2023/05/01 03:34:47;;;;;;;0.22;0.22;;;18.30;87.70;;;;;;4989470;28;20050;-77
2023/05/01 03:37:13;;;;;;;0.28;0.28;;;18.30;87.70;;;;;;4986921;28;20072;-76
2023/05/01 03:39:38;;;;;;;0.10;0.10;;;18.30;87.60;;;;;;4986890;28;20070;-77
2023/05/01 03:42:04;;;;;;;0.20;0.20;;;18.30;87.70;;;;;;4985338;28;20124;-77
2023/05/01 03:44:30;;;;;;;0.20;0.20;;;18.30;87.70;;;;;;4986850;28;20038;-77
2023/05/01 03:46:55;;;;;;;0.20;0.20;;;18.30;87.70;;;;;;4984622;28;20120;-77
2023/05/01 03:49:21;;;;;;;0.20;0.20;;;18.30;87.70;;;;;;4989699;28;20042;-77
2023/05/01 03:51:47;;;;;;;0.40;0.32;;;18.30;87.60;;;;;;4984120;28;20150;-77
2023/05/01 03:54:13;;;;;;;0.20;0.20;;;18.30;87.60;;;;;;4992191;28;20070;-77
2023/05/01 03:56:38;;;;;;;0.22;0.22;;;18.30;87.50;;;;;;4998277;28;20049;-76
2023/05/01 03:59:04;;;;;;;0.22;0.22;;;18.30;87.50;;;;;;5007557;28;20042;-77
2023/05/01 04:01:32;;;;;;;0.13;0.13;;;18.30;87.50;;;;;;5003393;28;20034;-77
2023/05/01 04:03:58;;;;;;;0.30;0.30;;;18.30;87.50;;;;;;5005807;28;20121;-77
2023/05/01 04:06:24;;;;;;;1.10;0.20;;;18.30;87.40;;;;;;5018406;28;20124;-76
2023/05/01 04:08:50;;;;;;;0.20;0.20;;;18.30;87.40;;;;;;5006957;28;20030;-77
2023/05/01 04:11:16;;;;;;;0.20;0.20;;;18.30;87.40;;;;;;4982009;28;20092;-77
2023/05/01 04:13:41;;;;;;;0.20;0.20;;;18.30;87.40;;;;;;5016056;28;20514;-77
2023/05/01 04:16:07;;;;;;;0.10;0.10;;;18.40;87.20;;;;;;4994751;28;20504;-78
2023/05/01 04:18:33;;;;;;;0.20;0.20;;;18.30;87.30;;;;;;4976237;28;20508;-77
2023/05/01 04:20:58;;;;;;;0.20;0.20;;;18.30;87.70;;;;;;4985458;28;20070;-77
2023/05/01 04:23:24;;;;;;;0.20;0.20;;;18.30;87.70;;;;;;4971007;28;20500;-77
2023/05/01 04:25:50;;;;;;;0.25;0.20;;;18.30;87.80;;;;;;4992603;28;20042;-77
2023/05/01 04:28:15;;;;;;;0.20;0.20;;;18.30;87.60;;;;;;4994751;28;20040;-77
2023/05/01 04:30:41;;;;;;;0.20;0.20;;;18.30;87.80;;;;;;4984098;28;20058;-77
2023/05/01 04:33:10;;;;;;;0.20;0.20;;;18.30;87.80;;;;;;4985078;28;20035;-77
2023/05/01 04:35:37;;;;;;;0.20;0.20;;;18.30;87.70;;;;;;4984196;28;20054;-77
2023/05/01 04:38:06;;;;;;;0.20;0.20;;;18.30;87.50;;;;;;4980494;28;20507;-77
2023/05/01 04:40:32;;;;;;;0.15;0.15;;;18.30;87.60;;;;;;4983981;28;20042;-77
2023/05/01 04:42:57;;;;;;;0.10;0.10;;;18.20;87.30;;;;;;4980313;28;20057;-77
2023/05/01 04:45:23;;;;;;;0.22;0.22;;;18.30;87.30;;;;;;4990085;28;20115;-77
2023/05/01 04:47:49;;;;;;;0.20;0.10;;;18.30;87.30;;;;;;4989423;28;20122;-77
2023/05/01 04:50:14;;;;;;;0.10;0.10;;;18.30;87.20;;;;;;4984916;28;20050;-77
2023/05/01 04:52:40;;;;;;;0.15;0.15;;;18.20;87.20;;;;;;4987154;28;20130;-77
2023/05/01 04:55:06;;;;;;;0.10;0.10;;;18.20;87.40;;;;;;4984227;28;20123;-77
2023/05/01 04:57:32;;;;;;;0.10;0.10;;;18.20;87.50;;;;;;4999403;28;20053;-77
2023/05/01 04:59:57;;;;;;;0.10;0.10;;;18.20;87.40;;;;;;4993813;28;20042;-77
2023/05/01 05:02:23;;;;;;;0.20;0.20;;;18.20;87.40;;;;;;4998039;28;20053;-77
2023/05/01 05:04:49;;;;;;;0.17;0.17;;;18.20;87.30;;;;;;4981025;28;20066;-77
2023/05/01 05:07:14;;;;;;;0.13;0.13;;;18.20;87.40;;;;;;4980560;28;20047;-79
2023/05/01 05:09:40;;;;;;;0.73;0.20;;;18.20;87.40;;;;;;4981665;28;20400;-79
2023/05/01 05:12:06;;;;;;;0.15;0.10;;;18.20;87.40;;;;;;4991458;28;20040;-79
2023/05/01 05:14:31;;;;;;;0.25;0.20;;;18.20;87.40;;;;;;4982448;28;20050;-79
2023/05/01 05:16:57;;;;;;;0.20;0.20;;;18.20;87.30;;;;;;4998658;28;20052;-79
2023/05/01 05:19:22;;;;;;;0.52;0.20;;;18.20;87.40;;;;;;5008372;28;20525;-79
2023/05/01 05:21:48;;;;;;;0.38;0.28;;;18.20;87.40;;;;;;5005475;28;20038;-80
2023/05/01 05:24:14;;;;;;;0.30;0.30;;;18.30;87.70;;;;;;5008311;28;20037;-80
2023/05/01 05:26:39;;;;;;;0.20;0.20;;;18.20;87.40;;;;;;5008876;28;20035;-80
2023/05/01 05:29:05;;;;;;;0.25;0.25;;;18.30;87.50;;;;;;5009210;28;20042;-80
2023/05/01 05:31:30;;;;;;;0.20;0.20;;;18.30;87.30;;;;;;5010729;28;20515;-80
2023/05/01 05:33:56;;;;;;;0.20;0.13;;;18.30;87.30;;;;;;5005691;28;20046;-80
2023/05/01 05:36:21;;;;;;;0.30;0.30;;;18.30;87.20;;;;;;5006336;28;20057;-80
2023/05/01 05:38:47;;;;;;;0.25;0.25;;;18.30;87.30;;;;;;5007573;28;20511;-81
2023/05/01 05:41:13;;;;;;;0.20;0.20;;;18.30;87.50;;;;;;5017705;28;20040;-80
2023/05/01 05:43:42;;;;;;;0.15;0.15;;;18.30;87.60;;;;;;4980646;28;20436;-80
2023/05/01 05:46:07;;;;;;;0.25;0.22;;;18.40;87.90;;;;;;5006403;28;20022;-79
2023/05/01 05:48:41;;;;;;;0.40;0.30;;;18.30;88.00;;;;;;5001458;28;20100;-77
2023/05/01 05:51:07;;;;;;;0.10;0.10;;;18.30;88.50;;;;;;5008048;28;20543;-77
2023/05/01 05:53:32;;;;;;;0.40;0.40;;;18.30;88.30;;;;;;5007412;28;20050;-80
2023/05/01 05:55:58;;;;;;;1.95;1.00;;;18.40;88.80;;;;;;5006699;28;20514;-85
2023/05/01 05:58:24;;;;;;;4.68;1.30;;;18.30;86.70;;;;;;5006851;28;20182;-81
2023/05/01 06:00:51;;;;;;;2.67;1.58;;;18.20;85.00;;;;;;5006222;28;20038;-82
2023/05/01 06:03:18;;;;;;;3.50;2.05;;;18.10;85.30;;;;;;5009397;28;20484;-81
2023/05/01 06:05:43;;;;;;;1.90;1.65;;;18.00;85.20;;;;;;5008452;28;20058;-81
2023/05/01 06:08:09;;;;;;;2.70;2.38;;;17.90;85.20;;;;;;4994027;28;20049;-83
2023/05/01 06:10:36;;;;;;;5.55;3.22;;;17.80;84.80;;;;;;4992625;28;20030;-82
2023/05/01 06:13:02;;;;;;;5.93;4.18;;;17.80;85.00;;;;;;4988974;28;20104;-80
2023/05/01 06:15:28;;;;;;;10.55;6.00;;;17.80;84.40;;;;;;5009332;28;20057;-83
2023/05/01 06:17:53;;;;;;;10.15;6.68;;;17.80;85.20;;;;;;4989931;28;20054;-82
2023/05/01 06:20:19;;;;;;;8.00;5.85;;;17.70;85.20;;;;;;5006653;28;20046;-79
2023/05/01 06:22:45;;;;;;;6.70;4.78;;;17.70;85.50;;;;;;5005694;28;20049;-84
2023/05/01 06:25:11;;;;;;;11.68;6.80;;;17.70;85.00;;;;;;5007300;28;20077;-85
2023/05/01 06:27:37;;;;;;;19.38;11.13;;;17.70;85.80;;;;;;4990027;28;20141;-85
2023/05/01 06:30:03;;;;;;;34.70;19.27;;;17.80;86.40;;;;;;5006811;28;20671;-86
2023/05/01 06:32:28;;;;;;;44.97;25.45;;;18.00;86.50;;;;;;5010409;28;20116;-85
2023/05/01 06:34:54;;;;;;;54.47;28.17;;;18.00;86.50;;;;;;5007146;28;20042;-81
2023/05/01 06:37:20;;;;;;;55.58;32.35;;;18.00;87.00;;;;;;5002020;28;20060;-83
2023/05/01 06:39:46;;;;;;;72.60;39.72;;;18.10;86.80;;;;;;5009854;28;20049;-82
2023/05/01 06:42:14;;;;;;;59.28;33.78;;;18.10;87.10;;;;;;4991585;28;20062;-79
2023/05/01 06:44:40;;;;;;;48.65;28.90;;;18.20;87.10;;;;;;5007645;28;20095;-83
2023/05/01 06:47:06;;;;;;;47.00;25.95;;;18.20;87.60;;;;;;5011821;28;20507;-83
2023/05/01 06:49:32;;;;;;;39.55;23.55;;;18.20;87.30;;;;;;5006976;28;20041;-80
2023/05/01 06:51:58;;;;;;;40.33;24.33;;;18.20;87.80;;;;;;4996020;28;20056;-82
2023/05/01 06:54:25;;;;;;;37.60;21.38;;;18.20;87.90;;;;;;5011695;28;20038;-81
2023/05/01 06:56:52;;;;;;;36.72;21.20;;;18.20;87.90;;;;;;5010391;28;20033;-81
2023/05/01 06:59:17;;;;;;;39.25;22.25;;;18.20;88.40;;;;;;5007024;28;20050;-81
2023/05/01 07:01:43;;;;;;;33.80;20.33;;;18.20;88.30;;;;;;5004140;28;20195;-81
2023/05/01 07:04:09;;;;;;;31.33;20.30;;;18.30;88.20;;;;;;5005876;28;20054;-81
2023/05/01 07:06:35;;;;;;;37.20;20.33;;;18.30;88.20;;;;;;5011943;28;20068;-81
2023/05/01 07:09:00;;;;;;;31.55;20.00;;;18.30;88.10;;;;;;4974236;28;20066;-81
2023/05/01 07:11:26;;;;;;;32.67;19.98;;;18.30;88.20;;;;;;4989516;28;20415;-82
2023/05/01 07:13:53;;;;;;;34.10;20.17;;;18.30;88.30;;;;;;5006657;28;20034;-82
2023/05/01 07:16:19;;;;;;;28.80;18.92;;;18.30;88.40;;;;;;5009607;28;20100;-81
2023/05/01 07:18:45;;;;;;;30.38;19.08;;;18.30;88.50;;;;;;5009934;28;20038;-79
2023/05/01 07:21:10;;;;;;;28.98;19.30;;;18.30;88.50;;;;;;5009653;28;20133;-78
2023/05/01 07:23:36;;;;;;;26.02;17.27;;;18.30;88.50;;;;;;5008718;28;20525;-81
2023/05/01 07:26:02;;;;;;;27.98;15.93;;;18.40;88.80;;;;;;5007299;28;20528;-80
2023/05/01 07:28:28;;;;;;;17.17;10.85;;;18.40;87.90;;;;;;5005980;28;20125;-80
2023/05/01 07:30:54;;;;;;;17.13;9.10;;;18.30;86.20;;;;;;5006357;28;20138;-79
2023/05/01 07:33:25;;;;;;;17.65;10.88;;;18.30;87.80;;;;;;5004638;28;20034;-78
2023/05/01 07:35:51;;;;;;;18.77;11.52;;;18.30;87.90;;;;;;4991316;28;20153;-82
2023/05/01 07:38:17;;;;;;;19.35;12.27;;;18.30;88.00;;;;;;5007852;28;20124;-79
2023/05/01 07:40:42;;;;;;;22.02;12.45;;;18.40;88.00;;;;;;5007376;28;20097;-81
2023/05/01 07:43:11;;;;;;;13.60;9.43;;;18.30;87.90;;;;;;5007364;28;20388;-80
2023/05/01 07:45:40;;;;;;;14.13;8.40;;;18.30;86.30;;;;;;5007898;28;20046;-83
2023/05/01 07:48:05;;;;;;;8.93;6.28;;;18.30;84.40;;;;;;5005259;28;20037;-83
2023/05/01 07:50:31;;;;;;;9.05;5.43;;;18.10;85.10;;;;;;4996774;28;20526;-82
2023/05/01 07:52:57;;;;;;;7.53;4.65;;;18.20;83.60;;;;;;5002500;28;20479;-81
2023/05/01 07:55:23;;;;;;;7.18;4.57;;;18.10;83.70;;;;;;4986331;28;20047;-88
2023/05/01 07:57:49;;;;;;;7.53;4.03;;;18.10;83.40;;;;;;4986814;28;20046;-83
2023/05/01 08:00:15;;;;;;;4.78;2.95;;;18.10;83.40;;;;;;4636091;28;10000501;-86
2023/05/01 08:02:40;;;;;;;6.53;2.53;;;18.10;82.30;;;;;;4979188;28;20104;-84
2023/05/01 08:05:06;;;;;;;3.88;2.50;;;18.10;82.90;;;;;;4982369;28;20053;-82
2023/05/01 08:07:32;;;;;;;4.07;2.50;;;18.00;83.30;;;;;;4983830;28;20483;-82
2023/05/01 08:10:00;;;;;;;3.20;2.10;;;17.90;82.60;;;;;;4980235;28;20112;-78
2023/05/01 08:12:27;;;;;;;2.80;2.13;;;18.00;82.70;;;;;;4995534;28;20049;-88
2023/05/01 08:14:52;;;;;;;5.18;2.15;;;18.10;82.50;;;;;;4988269;28;20050;-86
2023/05/01 08:17:38;;;;;;;2.85;1.55;;;18.00;82.30;;;;;;4983134;28;20134;-87
2023/05/01 08:20:22;;;;;;;3.28;2.20;;;18.10;82.20;;;;;;4996016;28;20034;-82
2023/05/01 08:22:48;;;;;;;2.75;1.98;;;18.00;82.60;;;;;;4986002;28;20510;-82
2023/05/01 08:25:13;;;;;;;2.05;1.50;;;18.00;82.10;;;;;;4984326;28;20062;-80
2023/05/01 08:27:39;;;;;;;2.08;1.40;;;18.00;82.10;;;;;;4984167;28;20507;-79
2023/05/01 08:30:05;;;;;;;1.38;1.27;;;18.00;82.00;;;;;;4638551;28;9999735;-79
2023/05/01 08:32:32;;;;;;;2.10;1.27;;;17.90;81.50;;;;;;4983028;28;20495;-80
2023/05/01 08:34:57;;;;;;;2.00;1.20;;;17.90;81.30;;;;;;4980931;28;20057;-81
2023/05/01 08:37:23;;;;;;;4.95;1.40;;;17.90;81.10;;;;;;4982969;28;20057;-82
2023/05/01 08:39:49;;;;;;;1.77;1.23;;;17.90;81.50;;;;;;4981416;28;20463;-81
2023/05/01 08:42:14;;;;;;;1.92;1.60;;;17.90;81.10;;;;;;4982375;28;20113;-83
2023/05/01 08:44:40;;;;;;;2.92;1.33;;;17.90;80.10;;;;;;4976866;28;20521;-82
2023/05/01 08:47:14;;;;;;;5.15;1.40;;;17.90;80.60;;;;;;5002192;28;20132;-80
2023/05/01 08:49:40;;;;;;;1.88;1.27;;;17.80;80.20;;;;;;4980673;28;20340;-80
2023/05/01 08:52:06;;;;;;;2.75;1.40;;;17.80;81.20;;;;;;4978554;28;20531;-81
2023/05/01 08:54:32;;;;;;;2.45;1.50;;;17.90;81.50;;;;;;4982720;28;20054;-81
2023/05/01 08:57:04;;;;;;;2.70;2.00;;;18.00;82.10;;;;;;4980455;28;20100;-80
2023/05/01 08:59:32;;;;;;;4.28;2.00;;;18.00;82.90;;;;;;4990006;28;20031;-79
2023/05/01 09:02:04;;;;;;;3.65;1.90;;;18.10;83.20;;;;;;4994005;28;20046;-79
2023/05/01 09:04:35;;;;;;;3.38;2.30;;;18.10;83.30;;;;;;4958935;28;20050;-80
2023/05/01 09:07:01;;;;;;;2.92;1.83;;;18.20;83.00;;;;;;4960623;28;20038;-80
2023/05/01 09:09:30;;;;;;;2.92;2.03;;;18.20;82.60;;;;;;4955799;28;20061;-80
2023/05/01 09:12:00;;;;;;;2.83;2.00;;;18.20;82.60;;;;;;4962962;28;20046;-80
2023/05/01 09:14:25;;;;;;;3.08;2.38;;;18.20;82.80;;;;;;4968780;28;20046;-80
2023/05/01 09:16:51;;;;;;;3.15;2.17;;;18.30;83.20;;;;;;4961396;28;20042;-80
2023/05/01 09:19:18;;;;;;;3.42;2.33;;;18.20;83.30;;;;;;4976419;28;20062;-80
2023/05/01 09:21:46;;;;;;;3.92;2.35;;;18.30;83.60;;;;;;4978643;28;21065;-80
2023/05/01 09:24:11;;;;;;;4.80;3.58;;;18.30;83.80;;;;;;4966533;28;20052;-80
2023/05/01 09:26:40;;;;;;;4.63;2.85;;;18.30;83.90;;;;;;4976631;28;20046;-80
2023/05/01 09:29:08;;;;;;;3.90;3.30;;;18.30;84.10;;;;;;4964763;28;20038;-79
2023/05/01 09:31:34;;;;;;;3.60;3.00;;;18.30;84.20;;;;;;4964206;28;20042;-79
2023/05/01 09:34:04;;;;;;;4.72;3.13;;;18.30;84.30;;;;;;4966305;28;20100;-80
2023/05/01 09:36:31;;;;;;;3.25;2.95;;;18.30;84.30;;;;;;4962404;28;20042;-80
2023/05/01 09:38:58;;;;;;;5.28;3.25;;;18.30;84.40;;;;;;4971814;28;20132;-80
2023/05/01 09:41:24;;;;;;;4.55;3.53;;;18.30;84.50;;;;;;4963644;28;20169;-80
2023/05/01 09:43:54;;;;;;;4.05;3.70;;;18.30;84.50;;;;;;4994028;28;20137;-79
2023/05/01 09:46:21;;;;;;;6.32;3.50;;;18.40;85.20;;;;;;4968159;28;20165;-79
2023/05/01 09:49:00;;;;;;;4.40;3.90;;;18.40;84.70;;;;;;4967858;28;20062;-80
2023/05/01 09:51:30;;;;;;;5.78;3.63;;;18.40;84.80;;;;;;4980789;28;20277;-80
2023/05/01 09:53:56;;;;;;;4.10;3.80;;;18.40;84.70;;;;;;4977372;28;20050;-80
2023/05/01 09:56:22;;;;;;;4.05;3.75;;;18.40;84.70;;;;;;4983931;28;20044;-80
2023/05/01 09:58:51;;;;;;;3.90;3.60;;;18.40;84.80;;;;;;4973645;28;20031;-80
2023/05/01 10:01:17;;;;;;;5.28;3.78;;;18.40;84.90;;;;;;4994994;28;20121;-80
2023/05/01 10:03:44;;;;;;;6.00;4.05;;;18.40;84.90;;;;;;4978775;28;20121;-80
2023/05/01 10:06:09;;;;;;;3.72;3.42;;;18.40;85.00;;;;;;4980247;28;20512;-79
2023/05/01 10:08:45;;;;;;;3.88;3.47;;;18.40;85.00;;;;;;4620596;28;10000462;-81
2023/05/01 10:11:13;;;;;;;3.45;2.97;;;18.40;84.80;;;;;;4972350;28;20534;-79
2023/05/01 10:13:38;;;;;;;2.45;1.95;;;18.40;82.80;;;;;;4983401;28;20077;-80
2023/05/01 10:16:06;;;;;;;2.33;2.13;;;18.40;81.90;;;;;;4977028;28;20085;-84
2023/05/01 10:18:35;;;;;;;2.42;1.88;;;18.40;82.00;;;;;;4951227;28;20062;-82
2023/05/01 10:21:01;;;;;;;2.10;1.67;;;18.40;82.30;;;;;;5004278;28;20049;-85
2023/05/01 10:23:28;;;;;;;2.83;1.92;;;18.50;81.80;;;;;;4995106;28;20109;-84
2023/05/01 10:25:53;;;;;;;1.98;1.60;;;18.50;81.50;;;;;;4982020;28;20475;-84
2023/05/01 10:28:20;;;;;;;2.80;1.60;;;18.50;80.90;;;;;;4957461;28;20061;-83
2023/05/01 10:30:46;;;;;;;2.55;1.70;;;18.50;81.00;;;;;;4982603;28;20046;-87
2023/05/01 10:33:12;;;;;;;2.63;1.83;;;18.50;79.60;;;;;;4967720;28;20046;-85
2023/05/01 10:35:39;;;;;;;1.55;1.45;;;18.50;79.70;;;;;;4982969;28;20054;-83
2023/05/01 10:38:09;;;;;;;3.15;1.45;;;18.50;79.00;;;;;;4948817;28;20050;-85
2023/05/01 10:40:38;;;;;;;3.10;1.60;;;18.50;80.10;;;;;;4957167;28;20037;-85
2023/05/01 10:43:25;;;;;;;1.52;1.27;;;18.50;79.40;;;;;;4988374;28;20042;-83
2023/05/01 10:45:51;;;;;;;1.30;1.20;;;18.50;79.20;;;;;;4975301;28;20043;-84
2023/05/01 10:48:38;;;;;;;1.67;1.20;;;18.50;80.30;;;;;;4975513;28;20361;-83
2023/05/01 10:51:09;;;;;;;1.40;1.27;;;18.60;79.00;;;;;;4980451;28;20042;-83
2023/05/01 10:53:35;;;;;;;2.67;1.70;;;18.50;78.50;;;;;;4980129;28;20054;-86
2023/05/01 10:56:04;;;;;;;1.83;1.70;;;18.50;79.50;;;;;;4961088;28;20088;-85
2023/05/01 10:58:36;;;;;;;1.92;1.38;;;18.50;78.10;;;;;;4979838;28;20054;-86
2023/05/01 11:01:30;;;;;;;2.92;1.95;;;18.50;79.00;;;;;;4977712;28;20734;-85
2023/05/01 11:03:57;;;;;;;5.68;2.15;;;18.60;79.00;;;;;;5003286;28;20073;-84
2023/05/01 11:06:25;;;;;;;2.22;1.50;;;18.60;80.30;;;;;;5001961;28;20785;-80
2023/05/01 11:08:51;;;;;;;2.03;1.40;;;18.50;79.40;;;;;;5020536;28;20054;-80
2023/05/01 11:11:22;;;;;;;2.78;1.40;;;18.50;78.60;;;;;;4982512;28;20124;-80
2023/05/01 11:14:03;;;;;;;2.00;1.45;;;18.50;78.70;;;;;;4982688;28;20542;-81
2023/05/01 11:16:40;;;;;;;1.63;1.23;;;18.50;78.20;;;;;;4981037;28;20603;-81
2023/05/01 11:19:21;;;;;;;1.20;1.10;;;18.40;77.00;;;;;;4980751;28;20042;-81
2023/05/01 11:21:47;;;;;;;1.17;1.08;;;18.50;77.10;;;;;;5004499;28;20519;-80
2023/05/01 11:24:13;;;;;;;1.88;1.30;;;18.60;78.00;;;;;;4985544;28;20038;-79
2023/05/01 11:26:39;;;;;;;1.40;1.00;;;18.60;78.00;;;;;;4985418;28;20035;-80
2023/05/01 11:29:05;;;;;;;2.80;1.10;;;18.60;77.80;;;;;;4981764;28;20601;-79
2023/05/01 11:31:30;;;;;;;1.92;1.00;;;18.50;77.20;;;;;;4946837;28;20046;-80
2023/05/01 11:34:00;;;;;;;2.83;1.25;;;18.50;77.80;;;;;;4966222;28;20050;-80
2023/05/01 11:36:26;;;;;;;1.27;1.00;;;18.60;78.60;;;;;;4983296;28;20097;-80
2023/05/01 11:39:00;;;;;;;1.40;1.13;;;18.60;77.50;;;;;;4985143;28;20053;-80
2023/05/01 11:41:26;;;;;;;2.17;1.20;;;18.50;77.70;;;;;;4983815;28;20053;-81
2023/05/01 11:43:56;;;;;;;2.17;1.42;;;18.60;77.30;;;;;;4982822;28;20042;-80
2023/05/01 11:46:29;;;;;;;1.17;1.08;;;18.60;77.30;;;;;;4981982;28;20126;-82
2023/05/01 11:49:01;;;;;;;1.63;1.15;;;18.60;77.50;;;;;;4976756;28;20045;-82
2023/05/01 11:51:27;;;;;;;1.45;0.90;;;18.50;77.50;;;;;;4979801;28;20062;-81
2023/05/01 11:53:59;;;;;;;1.00;0.80;;;18.60;77.70;;;;;;4980598;28;20077;-81
2023/05/01 11:56:28;;;;;;;0.70;0.70;;;18.60;77.00;;;;;;4979815;28;20516;-81
2023/05/01 11:58:55;;;;;;;1.33;0.88;;;18.60;77.60;;;;;;4978200;28;20047;-80
2023/05/01 12:01:33;;;;;;;1.48;1.05;;;18.60;77.40;;;;;;4972708;28;20550;-80
2023/05/01 12:04:28;;;;;;;1.25;1.15;;;18.60;78.20;;;;;;4979147;28;20524;-81
2023/05/01 12:06:55;;;;;;;1.50;1.25;;;18.60;78.10;;;;;;4980602;28;20054;-81
2023/05/01 12:09:22;;;;;;;1.38;1.15;;;18.70;78.10;;;;;;4979865;28;20442;-81
2023/05/01 12:11:48;;;;;;;1.70;0.98;;;18.70;78.30;;;;;;4982039;28;20523;-80
2023/05/01 12:14:14;;;;;;;2.03;1.10;;;18.60;78.40;;;;;;4979286;28;20196;-80
2023/05/01 12:16:41;;;;;;;1.33;0.95;;;18.60;78.60;;;;;;4980962;28;20133;-81
2023/05/01 12:19:06;;;;;;;1.17;1.00;;;18.60;78.80;;;;;;4978811;28;20051;-80
2023/05/01 12:21:32;;;;;;;2.53;1.20;;;18.70;78.70;;;;;;4982713;28;20042;-81
2023/05/01 12:24:18;;;;;;;1.23;1.13;;;18.70;78.70;;;;;;4999683;28;20029;-81
2023/05/01 12:26:44;;;;;;;0.82;0.70;;;18.70;78.80;;;;;;4978125;28;20396;-81
2023/05/01 12:29:10;;;;;;;0.85;0.85;;;18.70;78.80;;;;;;4965828;28;20050;-80
2023/05/01 12:31:36;;;;;;;1.67;0.90;;;18.70;79.10;;;;;;4980220;28;20030;-81
2023/05/01 12:34:05;;;;;;;2.55;1.13;;;18.70;79.20;;;;;;4974011;28;20046;-81
2023/05/01 12:36:32;;;;;;;1.50;1.00;;;18.70;79.40;;;;;;4961237;28;20042;-81
2023/05/01 12:39:07;;;;;;;1.55;1.23;;;18.80;79.60;;;;;;4980609;28;20048;-81
2023/05/01 12:41:44;;;;;;;1.27;0.80;;;18.80;79.70;;;;;;4983330;28;20443;-81
2023/05/01 12:44:26;;;;;;;1.38;0.93;;;18.80;79.70;;;;;;4982541;28;20050;-80
2023/05/01 12:46:59;;;;;;;1.00;0.70;;;18.80;79.80;;;;;;4977823;28;20081;-81
2023/05/01 12:49:24;;;;;;;1.77;1.00;;;18.80;80.00;;;;;;4980341;28;20038;-80